createdAt,value
2019-05-09T00:00:25.137Z,42.95
2019-05-09T00:02:54.751Z,42.90
2019-05-09T00:05:25.432Z,42.96
2019-05-09T00:07:55.203Z,42.98
2019-05-09T00:10:38.515Z,43.01
2019-05-09T00:12:56.225Z,43.14
2019-05-09T00:15:25.960Z,43.12
2019-05-09T00:17:55.580Z,43.20
2019-05-09T00:20:26.920Z,43.12
2019-05-09T00:22:56.549Z,43.09
2019-05-09T00:25:26.183Z,43.02
2019-05-09T00:27:55.843Z,43.26
2019-05-09T00:30:43.750Z,43.21
2019-05-09T00:33:15.012Z,43.18
2019-05-09T00:35:45.017Z,43.25
2019-05-09T00:38:14.615Z,43.17
2019-05-09T00:40:55.257Z,43.28
2019-05-09T00:43:16.105Z,43.37
2019-05-09T00:46:04.247Z,43.36
2019-05-09T00:48:50.814Z,43.37
2019-05-09T00:51:20.548Z,43.37
2019-05-09T00:53:50.258Z,43.33
2019-05-09T00:56:19.881Z,43.50
2019-05-09T00:58:49.550Z,43.52
2019-05-09T01:01:19.460Z,43.49
2019-05-09T01:03:49.094Z,43.44
2019-05-09T01:06:18.959Z,43.62
2019-05-09T01:08:48.580Z,43.65
2019-05-09T01:11:18.213Z,43.63
2019-05-09T01:13:47.879Z,43.66
2019-05-09T01:16:17.509Z,43.70
2019-05-09T01:18:47.120Z,43.77
2019-05-09T01:21:16.846Z,43.83
2019-05-09T01:23:46.453Z,43.83
2019-05-09T01:26:16.260Z,43.87
2019-05-09T01:28:47.788Z,43.97
2019-05-09T01:31:17.488Z,44.00
2019-05-09T01:33:54.964Z,43.99
2019-05-09T01:36:26.231Z,44.12
2019-05-09T01:38:56.687Z,44.17
2019-05-09T01:41:30.764Z,44.17
2019-05-09T01:43:57.689Z,44.25
2019-05-09T01:46:27.698Z,44.30
2019-05-09T01:48:57.360Z,44.34
2019-05-09T01:51:26.983Z,44.46
2019-05-09T01:53:56.616Z,44.50
2019-05-09T01:56:26.305Z,44.66
2019-05-09T01:58:55.935Z,44.74
2019-05-09T02:01:25.551Z,44.74
2019-05-09T02:03:55.289Z,44.80
2019-05-09T02:06:25.211Z,44.76
2019-05-09T02:08:54.842Z,44.83
2019-05-09T02:11:38.432Z,44.81
2019-05-09T02:13:56.086Z,44.95
2019-05-09T02:16:37.139Z,44.95
2019-05-09T02:19:08.421Z,44.97
2019-05-09T02:21:43.568Z,44.90
2019-05-09T02:24:14.219Z,44.97
2019-05-09T02:26:44.064Z,45.05
2019-05-09T02:29:14.003Z,45.08
2019-05-09T02:31:44.730Z,45.10
2019-05-09T02:34:15.171Z,45.26
2019-05-09T02:36:45.074Z,45.18
2019-05-09T02:39:14.764Z,45.24
2019-05-09T02:41:59.804Z,45.25
2019-05-09T02:44:15.746Z,45.28
2019-05-09T02:46:59.118Z,45.35
2019-05-09T02:49:29.126Z,45.37
2019-05-09T02:51:59.629Z,45.43
2019-05-09T02:54:30.175Z,45.47
2019-05-09T02:56:59.853Z,45.65
2019-05-09T02:59:34.003Z,45.66
2019-05-09T03:02:14.240Z,45.74
2019-05-09T03:04:43.878Z,45.81
2019-05-09T03:07:13.486Z,45.72
2019-05-09T03:09:43.144Z,45.83
2019-05-09T03:12:26.734Z,45.80
2019-05-09T03:14:44.159Z,45.81
2019-05-09T03:17:13.966Z,45.92
2019-05-09T03:19:43.634Z,45.97
2019-05-09T03:22:18.741Z,46.08
2019-05-09T03:24:48.855Z,46.12
2019-05-09T03:27:21.991Z,46.25
2019-05-09T03:29:53.254Z,46.15
2019-05-09T03:32:23.026Z,46.33
2019-05-09T03:34:52.656Z,46.25
2019-05-09T03:37:22.285Z,46.41
2019-05-09T03:39:52.008Z,46.42
2019-05-09T03:42:36.461Z,46.53
2019-05-09T03:44:54.362Z,46.49
2019-05-09T03:47:27.599Z,46.55
2019-05-09T03:50:10.764Z,46.73
2019-05-09T03:52:40.496Z,46.57
2019-05-09T03:55:12.388Z,46.56
2019-05-09T03:57:47.657Z,46.65
2019-05-09T04:00:18.110Z,46.79
2019-05-09T04:02:48.539Z,46.80
2019-05-09T04:05:18.303Z,46.78
2019-05-09T04:07:48.594Z,46.79
2019-05-09T04:10:18.918Z,46.87
2019-05-09T04:12:56.245Z,46.82
2019-05-09T04:15:20.199Z,46.85
2019-05-09T04:17:49.829Z,47.09
2019-05-09T04:20:19.540Z,46.93
2019-05-09T04:22:49.326Z,47.14
2019-05-09T04:25:21.200Z,47.11
2019-05-09T04:27:52.504Z,47.07
2019-05-09T04:30:22.192Z,47.00
2019-05-09T04:32:51.813Z,46.90
2019-05-09T04:35:21.570Z,47.19
2019-05-09T04:37:51.210Z,47.13
2019-05-09T04:40:20.850Z,46.95
2019-05-09T04:42:50.515Z,46.96
2019-05-09T04:45:24.442Z,46.86
2019-05-09T04:47:57.742Z,46.59
2019-05-09T04:50:27.999Z,46.59
2019-05-09T04:52:58.272Z,46.56
2019-05-09T04:55:29.541Z,46.73
2019-05-09T04:58:00.167Z,46.55
2019-05-09T05:00:48.054Z,46.67
2019-05-09T05:03:18.388Z,46.65
2019-05-09T05:05:48.277Z,46.59
2019-05-09T05:08:18.276Z,46.39
2019-05-09T05:10:47.958Z,46.53
2019-05-09T05:13:26.453Z,46.53
2019-05-09T05:15:48.907Z,46.57
2019-05-09T05:18:20.312Z,46.51
2019-05-09T05:20:49.974Z,46.47
2019-05-09T05:23:21.258Z,46.29
2019-05-09T05:25:50.966Z,46.27
2019-05-09T05:28:20.614Z,46.26
2019-05-09T05:30:50.241Z,46.51
2019-05-09T05:33:39.603Z,46.30
2019-05-09T05:36:10.859Z,46.10
2019-05-09T05:38:40.661Z,46.40
2019-05-09T05:41:11.293Z,46.42
2019-05-09T05:43:44.735Z,46.39
2019-05-09T05:46:30.571Z,46.42
2019-05-09T05:49:00.341Z,46.44
2019-05-09T05:51:31.749Z,46.43
2019-05-09T05:54:01.888Z,46.46
2019-05-09T05:56:31.514Z,46.49
2019-05-09T05:59:01.236Z,46.79
2019-05-09T06:01:31.294Z,46.53
2019-05-09T06:04:00.947Z,46.29
2019-05-09T06:06:37.512Z,46.26
2019-05-09T06:09:08.470Z,46.23
2019-05-09T06:11:38.474Z,46.33
2019-05-09T06:14:11.603Z,46.40
2019-05-09T06:16:39.739Z,46.49
2019-05-09T06:19:18.009Z,46.36
2019-05-09T06:21:52.203Z,46.30
2019-05-09T06:24:20.443Z,46.49
2019-05-09T06:26:50.288Z,46.56
2019-05-09T06:29:20.563Z,46.80
2019-05-09T06:31:50.282Z,47.20
2019-05-09T06:34:19.931Z,47.00
2019-05-09T06:36:49.691Z,47.19
2019-05-09T06:39:19.408Z,47.01
2019-05-09T06:41:49.042Z,47.11
2019-05-09T06:44:32.977Z,46.98
2019-05-09T06:47:04.287Z,46.78
2019-05-09T06:49:41.300Z,47.07
2019-05-09T06:52:11.020Z,46.93
2019-05-09T06:54:41.927Z,46.97
2019-05-09T06:57:11.871Z,46.99
2019-05-09T06:59:41.503Z,47.15
2019-05-09T07:02:19.066Z,47.76
2019-05-09T07:04:50.345Z,47.47
2019-05-09T07:07:21.635Z,47.29
2019-05-09T07:09:53.091Z,47.24
2019-05-09T07:12:23.043Z,47.19
2019-05-09T07:14:52.720Z,47.15
2019-05-09T07:17:22.776Z,47.06
2019-05-09T07:19:52.418Z,46.92
2019-05-09T07:22:28.089Z,47.06
2019-05-09T07:25:06.770Z,47.40
2019-05-09T07:27:32.795Z,47.01
2019-05-09T07:30:07.693Z,47.11
2019-05-09T07:32:39.159Z,47.31
2019-05-09T07:35:09.771Z,47.01
2019-05-09T07:37:39.458Z,47.15
2019-05-09T07:40:09.155Z,47.13
2019-05-09T07:42:39.723Z,46.89
2019-05-09T07:45:09.675Z,47.18
2019-05-09T07:47:39.317Z,47.43
2019-05-09T07:50:09.122Z,47.34
2019-05-09T07:52:39.052Z,47.16
2019-05-09T07:55:09.123Z,47.00
2019-05-09T07:57:46.407Z,47.11
2019-05-09T08:00:11.652Z,47.19
2019-05-09T08:02:41.779Z,47.22
2019-05-09T08:05:17.425Z,47.22
2019-05-09T08:07:48.559Z,47.24
2019-05-09T08:10:18.371Z,47.02
2019-05-09T08:12:48.168Z,47.40
2019-05-09T08:15:20.318Z,47.21
2019-05-09T08:17:49.837Z,46.92
2019-05-09T08:20:20.843Z,47.16
2019-05-09T08:22:57.923Z,46.98
2019-05-09T08:25:22.136Z,46.94
2019-05-09T08:27:52.350Z,46.96
2019-05-09T08:30:22.386Z,47.12
2019-05-09T08:32:52.158Z,47.26
2019-05-09T08:35:21.888Z,47.40
2019-05-09T08:37:51.682Z,47.05
2019-05-09T08:40:23.067Z,47.26
2019-05-09T08:42:52.800Z,46.95
2019-05-09T08:45:27.756Z,47.00
2019-05-09T08:47:54.203Z,46.98
2019-05-09T08:50:38.939Z,46.79
2019-05-09T08:53:09.253Z,46.78
2019-05-09T08:55:47.354Z,46.75
2019-05-09T08:58:14.637Z,46.63
2019-05-09T09:00:44.760Z,46.67
2019-05-09T09:03:15.095Z,46.81
2019-05-09T09:05:44.847Z,46.75
2019-05-09T09:08:14.626Z,46.37
2019-05-09T09:10:44.412Z,46.51
2019-05-09T09:13:14.118Z,46.13
2019-05-09T09:16:05.458Z,45.75
2019-05-09T09:18:17.851Z,45.66
2019-05-09T09:20:48.609Z,46.06
2019-05-09T09:23:19.339Z,45.96
2019-05-09T09:25:49.067Z,45.88
2019-05-09T09:28:18.980Z,45.11
2019-05-09T09:30:51.609Z,44.75
2019-05-09T09:33:21.305Z,44.85
2019-05-09T09:35:50.992Z,44.14
2019-05-09T09:38:20.809Z,44.61
2019-05-09T09:40:50.498Z,43.39
2019-05-09T09:43:20.203Z,42.73
2019-05-09T09:46:06.222Z,42.63
2019-05-09T09:48:21.212Z,42.91
2019-05-09T09:50:51.872Z,42.58
2019-05-09T09:53:23.211Z,42.48
2019-05-09T09:55:52.907Z,42.53
2019-05-09T09:58:22.794Z,42.34
2019-05-09T10:01:09.248Z,42.25
2019-05-09T10:03:40.006Z,42.14
2019-05-09T10:06:09.699Z,42.07
2019-05-09T10:08:40.329Z,42.25
2019-05-09T10:11:10.407Z,41.88
2019-05-09T10:13:40.110Z,41.80
2019-05-09T10:16:29.215Z,41.78
2019-05-09T10:18:57.853Z,41.47
2019-05-09T10:21:35.147Z,41.62
2019-05-09T10:24:07.461Z,41.85
2019-05-09T10:26:39.082Z,42.07
2019-05-09T10:29:08.935Z,41.81
2019-05-09T10:31:39.310Z,41.43
2019-05-09T10:34:12.197Z,41.30
2019-05-09T10:36:41.905Z,41.36
2019-05-09T10:39:11.583Z,41.51
2019-05-09T10:41:41.296Z,41.39
2019-05-09T10:44:18.159Z,41.73
2019-05-09T10:46:57.173Z,41.57
2019-05-09T10:49:20.989Z,41.56
2019-05-09T10:51:51.212Z,41.38
2019-05-09T10:54:21.000Z,41.39
2019-05-09T10:56:50.705Z,41.27
2019-05-09T10:59:20.448Z,41.17
2019-05-09T11:01:50.291Z,41.24
2019-05-09T11:04:21.598Z,40.82
2019-05-09T11:06:51.304Z,40.64
2019-05-09T11:09:21.045Z,40.45
2019-05-09T11:11:52.303Z,40.77
2019-05-09T11:14:36.155Z,40.89
2019-05-09T11:17:06.671Z,41.22
2019-05-09T11:19:24.868Z,40.70
2019-05-09T11:21:54.789Z,40.91
2019-05-09T11:24:40.529Z,41.34
2019-05-09T11:26:58.701Z,41.22
2019-05-09T11:29:29.219Z,41.38
2019-05-09T11:31:58.921Z,41.66
2019-05-09T11:34:28.570Z,41.58
2019-05-09T11:36:58.334Z,41.21
2019-05-09T11:39:36.602Z,40.96
2019-05-09T11:41:59.461Z,41.27
2019-05-09T11:44:29.210Z,41.30
2019-05-09T11:46:59.501Z,41.54
2019-05-09T11:49:29.615Z,41.55
2019-05-09T11:51:59.583Z,41.61
2019-05-09T11:54:32.985Z,41.18
2019-05-09T11:57:02.686Z,41.16
2019-05-09T11:59:32.554Z,41.30
2019-05-09T12:02:02.489Z,41.38
2019-05-09T12:04:32.748Z,41.22
2019-05-09T12:07:02.664Z,41.39
2019-05-09T12:09:48.938Z,41.01
2019-05-09T12:12:19.742Z,41.07
2019-05-09T12:14:49.732Z,40.93
2019-05-09T12:17:19.887Z,39.90
2019-05-09T12:19:49.734Z,39.59
2019-05-09T12:22:20.936Z,39.85
2019-05-09T12:24:53.755Z,40.14
2019-05-09T12:27:22.253Z,40.14
2019-05-09T12:29:51.830Z,40.23
2019-05-09T12:32:46.739Z,40.02
2019-05-09T12:34:57.822Z,40.15
2019-05-09T12:37:28.217Z,40.00
2019-05-09T12:39:58.684Z,40.09
2019-05-09T12:42:29.373Z,40.31
2019-05-09T12:45:02.034Z,40.53
2019-05-09T12:47:33.320Z,40.78
2019-05-09T12:50:03.288Z,40.81
2019-05-09T12:52:33.075Z,41.00
2019-05-09T12:55:02.779Z,40.81
2019-05-09T12:57:32.960Z,40.70
2019-05-09T13:00:02.931Z,40.66
2019-05-09T13:02:33.846Z,40.70
2019-05-09T13:05:04.683Z,40.43
2019-05-09T13:07:34.428Z,40.08
2019-05-09T13:10:05.298Z,39.93
2019-05-09T13:12:38.559Z,40.30
2019-05-09T13:15:08.917Z,40.26
2019-05-09T13:17:43.252Z,40.21
2019-05-09T13:20:14.490Z,40.20
2019-05-09T13:22:47.728Z,40.10
2019-05-09T13:25:18.856Z,40.01
2019-05-09T13:27:52.535Z,39.77
2019-05-09T13:30:20.002Z,39.92
2019-05-09T13:32:50.273Z,39.96
2019-05-09T13:35:20.240Z,40.17
2019-05-09T13:37:50.501Z,40.10
2019-05-09T13:40:20.414Z,40.42
2019-05-09T13:42:50.212Z,40.58
2019-05-09T13:45:20.257Z,40.77
2019-05-09T13:47:49.963Z,40.86
2019-05-09T13:50:19.589Z,41.06
2019-05-09T13:52:49.694Z,41.38
2019-05-09T13:55:19.467Z,41.51
2019-05-09T13:57:49.212Z,41.45
2019-05-09T14:00:19.427Z,41.54
2019-05-09T14:02:49.539Z,41.71
2019-05-09T14:05:19.445Z,41.77
2019-05-09T14:07:53.859Z,42.07
2019-05-09T14:10:20.654Z,42.01
2019-05-09T14:13:05.856Z,41.97
2019-05-09T14:15:22.240Z,42.08
2019-05-09T14:17:53.892Z,42.18
2019-05-09T14:20:23.358Z,42.41
2019-05-09T14:22:53.361Z,42.78
2019-05-09T14:25:23.264Z,43.29
2019-05-09T14:27:52.907Z,43.67
2019-05-09T14:30:22.696Z,43.85
2019-05-09T14:32:52.550Z,44.29
2019-05-09T14:35:22.239Z,44.59
2019-05-09T14:37:51.872Z,44.75
2019-05-09T14:40:21.718Z,45.09
2019-05-09T14:42:51.427Z,45.31
2019-05-09T14:45:21.185Z,45.79
2019-05-09T14:47:50.923Z,45.94
2019-05-09T14:50:20.581Z,45.70
2019-05-09T14:52:50.747Z,45.76
2019-05-09T14:55:20.503Z,46.02
2019-05-09T14:57:50.249Z,46.37
2019-05-09T15:00:20.287Z,46.28
2019-05-09T15:02:49.965Z,46.64
2019-05-09T15:05:19.893Z,46.88
2019-05-09T15:07:49.529Z,47.28
2019-05-09T15:10:19.299Z,47.92
2019-05-09T15:12:49.061Z,48.02
2019-05-09T15:15:19.013Z,48.24
2019-05-09T15:17:49.540Z,48.63
2019-05-09T15:20:19.791Z,48.70
2019-05-09T15:22:49.533Z,48.97
2019-05-09T15:25:20.816Z,48.93
2019-05-09T15:27:50.940Z,49.97
2019-05-09T15:30:21.310Z,50.27
2019-05-09T15:32:52.034Z,50.96
2019-05-09T15:35:22.337Z,51.45
2019-05-09T15:37:51.997Z,51.89
2019-05-09T15:40:21.955Z,52.18
2019-05-09T15:42:52.336Z,52.13
2019-05-09T15:45:22.408Z,52.54
2019-05-09T15:47:52.083Z,52.90
2019-05-09T15:50:23.286Z,53.33
2019-05-09T15:52:53.700Z,53.59
2019-05-09T15:55:23.481Z,54.04
2019-05-09T15:57:53.183Z,54.43
2019-05-09T16:00:22.895Z,54.96
2019-05-09T16:02:53.248Z,55.39
2019-05-09T16:05:24.899Z,55.47
2019-05-09T16:07:54.569Z,55.46
2019-05-09T16:10:24.266Z,55.82
2019-05-09T16:12:54.897Z,56.44
2019-05-09T16:15:24.665Z,56.57
2019-05-09T16:17:54.361Z,56.66
2019-05-09T16:20:37.074Z,56.87
2019-05-09T16:22:57.203Z,56.95
2019-05-09T16:25:28.275Z,57.49
2019-05-09T16:27:59.963Z,57.62
2019-05-09T16:30:29.667Z,57.71
2019-05-09T16:32:59.335Z,58.17
2019-05-09T16:35:29.006Z,58.56
2019-05-09T16:38:06.429Z,59.15
2019-05-09T16:40:30.925Z,59.60
2019-05-09T16:43:00.590Z,59.90
2019-05-09T16:45:30.215Z,60.31
2019-05-09T16:48:02.333Z,60.21
2019-05-09T16:50:32.096Z,60.06
2019-05-09T16:53:01.825Z,59.69
2019-05-09T16:55:37.970Z,60.27
2019-05-09T16:58:08.613Z,60.38
2019-05-09T17:00:41.366Z,60.49
2019-05-09T17:03:11.010Z,61.10
2019-05-09T17:05:40.793Z,61.28
2019-05-09T17:08:10.526Z,61.46
2019-05-09T17:10:40.168Z,62.20
2019-05-09T17:13:09.877Z,62.61
2019-05-09T17:15:39.595Z,62.63
2019-05-09T17:18:10.088Z,62.60
2019-05-09T17:20:41.489Z,62.18
2019-05-09T17:23:15.087Z,62.43
2019-05-09T17:25:47.923Z,62.46
2019-05-09T17:28:17.966Z,62.38
2019-05-09T17:30:49.307Z,62.65
2019-05-09T17:33:19.614Z,62.96
2019-05-09T17:35:49.429Z,63.09
2019-05-09T17:38:19.107Z,63.15
2019-05-09T17:40:48.762Z,63.36
2019-05-09T17:43:18.983Z,63.10
2019-05-09T17:45:49.422Z,63.26
2019-05-09T17:48:19.055Z,62.94
2019-05-09T17:50:48.706Z,62.80
2019-05-09T17:53:18.495Z,62.96
2019-05-09T17:55:49.645Z,63.58
2019-05-09T17:58:29.777Z,63.73
2019-05-09T18:00:50.688Z,63.55
2019-05-09T18:03:20.602Z,63.38
2019-05-09T18:05:50.714Z,63.35
2019-05-09T18:08:21.475Z,63.31
2019-05-09T18:10:51.190Z,63.49
2019-05-09T18:13:23.895Z,63.85
2019-05-09T18:15:52.293Z,63.82
2019-05-09T18:18:21.922Z,63.89
2019-05-09T18:20:51.580Z,63.94
2019-05-09T18:23:21.435Z,63.89
2019-05-09T18:25:51.068Z,64.06
2019-05-09T18:28:20.852Z,64.05
2019-05-09T18:30:50.620Z,63.94
2019-05-09T18:33:30.704Z,64.17
2019-05-09T18:36:00.401Z,64.19
2019-05-09T18:38:32.927Z,64.55
2019-05-09T18:41:06.444Z,64.61
2019-05-09T18:43:34.329Z,64.56
2019-05-09T18:46:03.981Z,64.84
2019-05-09T18:48:34.841Z,65.09
2019-05-09T18:51:04.911Z,64.95
2019-05-09T18:53:35.514Z,65.17
2019-05-09T18:56:05.561Z,65.14
2019-05-09T18:58:36.070Z,65.19
2019-05-09T19:01:06.837Z,65.62
2019-05-09T19:03:37.148Z,65.95
2019-05-09T19:06:06.926Z,65.91
2019-05-09T19:08:37.361Z,65.71
2019-05-09T19:11:07.064Z,65.88
2019-05-09T19:13:36.817Z,66.02
2019-05-09T19:16:14.118Z,66.12
2019-05-09T19:18:48.355Z,66.26
2019-05-09T19:21:19.661Z,66.36
2019-05-09T19:23:49.292Z,66.50
2019-05-09T19:26:37.295Z,66.59
2019-05-09T19:29:09.405Z,66.69
2019-05-09T19:31:39.785Z,66.62
2019-05-09T19:34:12.681Z,66.87
2019-05-09T19:36:42.902Z,66.97
2019-05-09T19:39:12.703Z,66.97
2019-05-09T19:41:42.389Z,67.00
2019-05-09T19:44:12.025Z,67.24
2019-05-09T19:46:41.715Z,67.54
2019-05-09T19:49:11.540Z,67.67
2019-05-09T19:51:41.347Z,67.58
2019-05-09T19:54:11.372Z,67.87
2019-05-09T19:56:41.057Z,67.96
2019-05-09T19:59:11.362Z,68.15
2019-05-09T20:01:41.004Z,68.18
2019-05-09T20:04:10.795Z,68.24
2019-05-09T20:06:40.428Z,68.37
2019-05-09T20:09:11.781Z,68.54
2019-05-09T20:11:43.067Z,68.42
2019-05-09T20:14:23.267Z,69.03
2019-05-09T20:16:55.918Z,68.98
2019-05-09T20:19:25.875Z,68.76
2019-05-09T20:21:57.156Z,68.74
2019-05-09T20:24:26.891Z,68.85
2019-05-09T20:26:56.647Z,69.11
2019-05-09T20:29:26.361Z,69.25
2019-05-09T20:31:57.179Z,69.18
2019-05-09T20:34:26.818Z,69.33
2019-05-09T20:36:56.450Z,69.48
2019-05-09T20:39:26.342Z,69.73
2019-05-09T20:41:56.216Z,69.87
2019-05-09T20:44:26.060Z,69.78
2019-05-09T20:46:55.964Z,69.70
2019-05-09T20:49:25.818Z,70.22
2019-05-09T20:51:55.736Z,70.36
2019-05-09T20:54:25.606Z,70.39
2019-05-09T20:56:55.455Z,70.27
2019-05-09T20:59:25.325Z,70.18
2019-05-09T21:01:55.305Z,70.30
2019-05-09T21:04:25.123Z,70.53
2019-05-09T21:06:55.053Z,70.89
2019-05-09T21:09:24.915Z,70.76
2019-05-09T21:11:55.527Z,70.69
2019-05-09T21:14:25.394Z,70.71
2019-05-09T21:16:55.323Z,70.65
2019-05-09T21:19:25.141Z,70.66
2019-05-09T21:21:54.990Z,70.53
2019-05-09T21:24:25.673Z,70.62
2019-05-09T21:26:55.503Z,70.76
2019-05-09T21:29:26.485Z,70.94
2019-05-09T21:31:56.734Z,71.00
2019-05-09T21:34:27.325Z,70.97
2019-05-09T21:36:57.061Z,70.87
2019-05-09T21:39:27.024Z,70.84
2019-05-09T21:41:56.751Z,70.81
2019-05-09T21:44:26.479Z,70.91
2019-05-09T21:46:56.348Z,70.95
2019-05-09T21:49:30.845Z,70.95
2019-05-09T21:52:02.016Z,71.06
2019-05-09T21:54:31.825Z,71.19
2019-05-09T21:57:01.465Z,71.24
2019-05-09T21:59:31.112Z,71.39
2019-05-09T22:02:01.325Z,71.57
2019-05-09T22:04:31.108Z,71.55
2019-05-09T22:07:02.406Z,71.91
2019-05-09T22:09:32.468Z,72.00
2019-05-09T22:12:02.138Z,72.08
2019-05-09T22:14:31.803Z,72.23
2019-05-09T22:17:03.133Z,72.23
2019-05-09T22:19:32.778Z,72.24
2019-05-09T22:22:02.430Z,72.21
2019-05-09T22:24:32.125Z,72.41
2019-05-09T22:27:01.777Z,72.42
2019-05-09T22:29:31.441Z,72.36
2019-05-09T22:32:01.115Z,72.33
2019-05-09T22:34:30.759Z,72.30
2019-05-09T22:37:00.644Z,72.28
2019-05-09T22:39:30.326Z,72.37
2019-05-09T22:42:01.028Z,72.48
2019-05-09T22:44:30.652Z,72.48
2019-05-09T22:47:00.374Z,72.62
2019-05-09T22:49:30.060Z,72.84
2019-05-09T22:51:59.811Z,73.15
2019-05-09T22:54:29.603Z,73.50
2019-05-09T22:56:59.412Z,73.62
2019-05-09T22:59:29.533Z,73.63
2019-05-09T23:01:59.270Z,73.49
2019-05-09T23:04:29.380Z,73.30
2019-05-09T23:06:59.043Z,73.37
2019-05-09T23:09:28.821Z,73.31
2019-05-09T23:11:58.821Z,73.32
2019-05-09T23:14:28.805Z,73.32
2019-05-09T23:17:00.044Z,73.27
2019-05-09T23:19:29.715Z,73.25
2019-05-09T23:22:00.465Z,73.28
2019-05-09T23:24:34.270Z,73.23
2019-05-09T23:27:04.241Z,73.14
2019-05-09T23:29:34.055Z,73.08
2019-05-09T23:32:21.448Z,73.14
2019-05-09T23:34:51.094Z,73.30
2019-05-09T23:37:20.732Z,73.36
2019-05-09T23:39:52.922Z,73.46
2019-05-09T23:42:22.621Z,73.56
2019-05-09T23:44:52.275Z,73.70
2019-05-09T23:47:22.136Z,73.76
2019-05-09T23:49:51.785Z,73.72
2019-05-09T23:52:21.423Z,73.69
2019-05-09T23:55:09.296Z,73.60
2019-05-09T23:57:56.431Z,73.49
